Time;durP1;ratioP1;P1;durP2;ratioP2;P2;SDS_P1;SDS_P2;PMS_P1;PMS_P2;Temp;Humidity;BMP_temperature;BMP_pressure;BME280_temperature;BME280_humidity;BME280_pressure;Samples;Min_cycle;Max_cycle;Signal;HPM_P1;HPM_P2
2022/09/02 00:07:16;;;;;;;;;;;;;;;;;;20915483;28;20286;-62
2022/09/02 00:17:18;;;;;;;;;;;;;;;;;;20914758;28;19925;-61
2022/09/02 00:27:20;;;;;;;;;;;;;;;;;;20914599;28;19952;-61
2022/09/02 00:37:23;;;;;;;;;;;;;;;;;;20982823;28;19970;-63
2022/09/02 00:47:26;;;;;;;;;;;;;;;;;;21079831;28;19924;-62
2022/09/02 00:57:27;;;;;;;;;;;;;;;;;;21079401;28;20006;-62
2022/09/02 01:07:29;;;;;;;;;;;;;;;;;;21077217;28;19928;-61
2022/09/02 01:17:33;;;;;;;;;;;;;;;;;;21080961;28;20339;-61
2022/09/02 01:27:35;;;;;;;;;;;;;;;;;;21094696;28;19979;-61
2022/09/02 01:37:41;;;;;;;;;;;;;;;;;;21094100;28;19928;-63
2022/09/02 01:47:44;;;;;;;;;;;;;;;;;;21093570;28;19993;-61
2022/09/02 01:57:49;;;;;;;;;;;;;;;;;;21092347;28;19928;-62
2022/09/02 02:07:53;;;;;;;;;;;;;;;;;;21092087;28;19924;-62
2022/09/02 02:17:57;;;;;;;;;;;;;;;;;;21091059;28;19924;-63
2022/09/02 02:28:02;;;;;;;;;;;;;;;;;;21089168;28;19931;-62
2022/09/02 02:38:05;;;;;;;;;;;;;;;;;;21087682;28;20261;-61
2022/09/02 02:48:09;;;;;;;;;;;;;;;;;;21089030;28;20334;-61
2022/09/02 02:58:11;;;;;;;;;;;;;;;;;;21087554;28;19927;-62
2022/09/02 03:08:13;;;;;;;;;;;;;;;;;;21086752;28;19925;-62
2022/09/02 03:18:18;;;;;;;;;;;;;;;;;;21085711;28;19924;-62
2022/09/02 03:28:21;;;;;;;;;;;;;;;;;;21084834;28;19924;-62
2022/09/02 03:38:23;;;;;;;;;;;;;;;;;;21082304;28;19924;-63
2022/09/02 03:48:25;;;;;;;;;;;;;;;;;;21082597;28;19924;-61
2022/09/02 03:58:27;;;;;;;;;;;;;;;;;;21083476;28;20009;-61
2022/09/02 04:08:29;;;;;;;;;;;;;;;;;;21082755;28;19966;-61
2022/09/02 04:18:31;;;;;;;;;;;;;;;;;;21080992;28;19931;-61
2022/09/02 04:28:34;;;;;;;;;;;;;;;;;;21080900;28;19924;-61
2022/09/02 04:38:36;;;;;;;;;;;;;;;;;;21081462;28;20437;-61
2022/09/02 04:48:41;;;;;;;;;;;;;;;;;;21079795;28;19993;-61
2022/09/02 04:58:43;;;;;;;;;;;;;;;;;;21094178;28;19924;-63
2022/09/02 05:08:47;;;;;;;;;;;;;;;;;;21096767;28;19928;-61
2022/09/02 05:18:49;;;;;;;;;;;;;;;;;;21095575;28;19947;-63
2022/09/02 05:28:51;;;;;;;;;;;;;;;;;;21094160;28;20010;-62
2022/09/02 05:38:53;;;;;;;;;;;;;;;;;;21093654;28;19931;-62
2022/09/02 05:49:04;;;;;;;;;;;;;;;;;;21093405;28;20296;-61
2022/09/02 05:59:07;;;;;;;;;;;;;;;;;;21092456;28;19928;-62
2022/09/02 06:09:09;;;;;;;;;;;;;;;;;;21091743;28;19931;-62
2022/09/02 06:19:11;;;;;;;;;;;;;;;;;;21090932;28;19924;-62
2022/09/02 06:29:13;;;;;;;;;;;;;;;;;;21090301;28;19924;-63
2022/09/02 06:39:15;;;;;;;;;;;;;;;;;;21089054;28;20261;-62
2022/09/02 06:49:17;;;;;;;;;;;;;;;;;;21087749;28;20011;-62
2022/09/02 06:59:20;;;;;;;;;;;;;;;;;;21086932;28;19928;-62
2022/09/02 07:09:21;;;;;;;;;;;;;;;;;;21086642;28;20317;-62
2022/09/02 07:19:24;;;;;;;;;;;;;;;;;;21084519;28;19969;-62
2022/09/02 07:29:26;;;;;;;;;;;;;;;;;;21083878;28;19924;-63
2022/09/02 07:39:28;;;;;;;;;;;;;;;;;;21084137;28;19928;-62
2022/09/02 07:49:30;;;;;;;;;;;;;;;;;;21083212;28;19928;-62
2022/09/02 07:59:32;;;;;;;;;;;;;;;;;;21082198;28;19996;-62
2022/09/02 08:09:35;;;;;;;;;;;;;;;;;;21081489;28;19967;-63
2022/09/02 08:19:37;;;;;;;;;;;;;;;;;;21080860;28;19924;-60
2022/09/02 08:29:40;;;;;;;;;;;;;;;;;;21079921;28;20296;-62
2022/09/02 08:39:41;;;;;;;;;;;;;;;;;;21080015;28;19928;-61
2022/09/02 08:49:45;;;;;;;;;;;;;;;;;;21079046;28;20288;-61
2022/09/02 08:59:49;;;;;;;;;;;;;;;;;;21080098;28;20013;-62
2022/09/02 09:09:51;;;;;;;;;;;;;;;;;;21070409;28;19936;-63
2022/09/02 09:19:54;;;;;;;;;;;;;;;;;;20995461;28;20368;-62
2022/09/02 09:29:56;;;;;;;;;;;;;;;;;;20994154;28;19925;-63
2022/09/02 09:39:58;;;;;;;;;;;;;;;;;;20997602;28;19924;-62
2022/09/02 09:50:00;;;;;;;;;;;;;;;;;;21008921;28;20340;-63
2022/09/02 10:00:03;;;;;;;;;;;;;;;;;;21009785;28;19929;-62
2022/09/02 10:10:05;;;;;;;;;;;;;;;;;;21008509;28;20015;-62
2022/09/02 10:20:06;;;;;;;;;;;;;;;;;;21022019;28;19975;-62
2022/09/02 10:30:08;;;;;;;;;;;;;;;;;;21005828;28;20373;-62
2022/09/02 10:40:10;;;;;;;;;;;;;;;;;;21004635;28;19928;-62
2022/09/02 10:50:13;;;;;;;;;;;;;;;;;;21004786;28;19925;-63
2022/09/02 11:00:15;;;;;;;;;;;;;;;;;;21003460;28;19928;-63
2022/09/02 11:10:17;;;;;;;;;;;;;;;;;;21003109;28;20300;-62
2022/09/02 11:20:19;;;;;;;;;;;;;;;;;;21001580;28;20369;-61
2022/09/02 11:30:21;;;;;;;;;;;;;;;;;;21000486;28;19955;-61
2022/09/02 11:40:25;;;;;;;;;;;;;;;;;;20999314;28;20373;-62
2022/09/02 11:50:27;;;;;;;;;;;;;;;;;;20999639;28;19947;-62
2022/09/02 12:00:29;;;;;;;;;;;;;;;;;;20998064;28;19925;-62
2022/09/02 12:10:33;;;;;;;;;;;;;;;;;;20997416;28;19978;-62
2022/09/02 12:20:35;;;;;;;;;;;;;;;;;;20997545;28;19984;-62
2022/09/02 12:30:37;;;;;;;;;;;;;;;;;;20996760;28;20014;-62
2022/09/02 12:40:40;;;;;;;;;;;;;;;;;;20996106;28;20034;-63
2022/09/02 12:50:42;;;;;;;;;;;;;;;;;;20995895;28;20015;-62
2022/09/02 13:00:45;;;;;;;;;;;;;;;;;;20995817;28;19947;-63
2022/09/02 13:10:46;;;;;;;;;;;;;;;;;;20995710;28;19924;-62
2022/09/02 13:20:49;;;;;;;;;;;;;;;;;;21010015;28;19954;-62
2022/09/02 13:30:52;;;;;;;;;;;;;;;;;;21011123;28;19925;-63
2022/09/02 13:40:54;;;;;;;;;;;;;;;;;;21009800;28;20034;-63
2022/09/02 13:50:57;;;;;;;;;;;;;;;;;;21013014;28;19970;-63
2022/09/02 14:00:59;;;;;;;;;;;;;;;;;;21012892;28;19931;-61
2022/09/02 14:11:01;;;;;;;;;;;;;;;;;;21007694;28;19925;-62
2022/09/02 14:21:04;;;;;;;;;;;;;;;;;;21006809;28;19931;-62
2022/09/02 14:31:05;;;;;;;;;;;;;;;;;;21005078;28;19935;-63
2022/09/02 14:41:09;;;;;;;;;;;;;;;;;;21005518;28;19925;-62
2022/09/02 14:51:11;;;;;;;;;;;;;;;;;;21006739;28;19979;-62
2022/09/02 15:01:13;;;;;;;;;;;;;;;;;;21084813;28;20368;-64
2022/09/02 15:11:19;;;;;;;;;;;;;;;;;;21086586;28;19924;-62
2022/09/02 15:21:22;;;;;;;;;;;;;;;;;;21101405;28;19924;-62
2022/09/02 15:31:25;;;;;;;;;;;;;;;;;;21085408;28;19924;-63
2022/09/02 15:41:30;;;;;;;;;;;;;;;;;;21082632;28;20042;-63
2022/09/02 15:51:31;;;;;;;;;;;;;;;;;;21085923;28;20364;-62
2022/09/02 16:01:34;;;;;;;;;;;;;;;;;;21084782;28;20281;-62
2022/09/02 16:11:35;;;;;;;;;;;;;;;;;;21083560;28;19925;-62
2022/09/02 16:21:38;;;;;;;;;;;;;;;;;;21082346;28;19971;-62
2022/09/02 16:31:40;;;;;;;;;;;;;;;;;;21082972;28;19977;-60
2022/09/02 16:41:42;;;;;;;;;;;;;;;;;;21081915;28;19969;-63
2022/09/02 16:51:44;;;;;;;;;;;;;;;;;;21080625;28;19924;-61
2022/09/02 17:01:46;;;;;;;;;;;;;;;;;;21080428;28;20011;-62
2022/09/02 17:11:49;;;;;;;;;;;;;;;;;;21095064;28;20295;-63
2022/09/02 17:21:51;;;;;;;;;;;;;;;;;;21079551;28;19928;-62
2022/09/02 17:31:53;;;;;;;;;;;;;;;;;;21078554;28;19924;-61
2022/09/02 17:41:56;;;;;;;;;;;;;;;;;;21079702;28;19924;-62
2022/09/02 17:51:58;;;;;;;;;;;;;;;;;;21099140;28;19924;-62
2022/09/02 18:02:01;;;;;;;;;;;;;;;;;;21084136;28;20136;-61
2022/09/02 18:12:04;;;;;;;;;;;;;;;;;;21091433;28;19930;-64
2022/09/02 18:22:06;;;;;;;;;;;;;;;;;;21091502;28;19931;-61
2022/09/02 18:32:07;;;;;;;;;;;;;;;;;;21105607;28;19969;-62
2022/09/02 18:42:10;;;;;;;;;;;;;;;;;;21088595;28;19924;-61
2022/09/02 18:52:11;;;;;;;;;;;;;;;;;;21088926;28;19928;-62
2022/09/02 19:02:13;;;;;;;;;;;;;;;;;;21087197;28;19932;-61
2022/09/02 19:12:15;;;;;;;;;;;;;;;;;;21087635;28;20418;-62
2022/09/02 19:22:17;;;;;;;;;;;;;;;;;;21085519;28;19924;-63
2022/09/02 19:32:19;;;;;;;;;;;;;;;;;;21085922;28;20007;-62
2022/09/02 19:42:21;;;;;;;;;;;;;;;;;;21085454;28;20392;-61
2022/09/02 19:52:22;;;;;;;;;;;;;;;;;;21084964;28;19924;-61
2022/09/02 20:02:24;;;;;;;;;;;;;;;;;;21083981;28;19925;-60
2022/09/02 20:12:27;;;;;;;;;;;;;;;;;;21083915;28;20273;-61
2022/09/02 20:22:29;;;;;;;;;;;;;;;;;;21081801;28;20391;-62
2022/09/02 20:32:30;;;;;;;;;;;;;;;;;;21080855;28;19928;-62
2022/09/02 20:42:32;;;;;;;;;;;;;;;;;;21063714;28;19930;-61
2022/09/02 20:52:34;;;;;;;;;;;;;;;;;;21080662;28;20069;-61
2022/09/02 21:02:36;;;;;;;;;;;;;;;;;;21080047;28;19971;-62
2022/09/02 21:12:39;;;;;;;;;;;;;;;;;;21079811;28;20431;-62
2022/09/02 21:22:41;;;;;;;;;;;;;;;;;;21078697;28;19936;-63
2022/09/02 21:32:43;;;;;;;;;;;;;;;;;;21079119;28;20372;-62
2022/09/02 21:42:45;;;;;;;;;;;;;;;;;;21093175;28;19925;-61
2022/09/02 21:52:47;;;;;;;;;;;;;;;;;;21094060;28;20292;-60
2022/09/02 22:02:56;;;;;;;;;;;;;;;;;;21092603;28;20264;-61
2022/09/02 22:13:00;;;;;;;;;;;;;;;;;;21091439;28;19992;-61
2022/09/02 22:23:02;;;;;;;;;;;;;;;;;;21091192;28;19924;-61
2022/09/02 22:33:05;;;;;;;;;;;;;;;;;;21089355;28;20009;-62
2022/09/02 22:43:07;;;;;;;;;;;;;;;;;;21088126;28;20371;-63
2022/09/02 22:53:09;;;;;;;;;;;;;;;;;;21103053;28;19983;-61
2022/09/02 23:03:11;;;;;;;;;;;;;;;;;;21086562;28;19974;-62
2022/09/02 23:13:13;;;;;;;;;;;;;;;;;;21086608;28;19925;-61
2022/09/02 23:23:15;;;;;;;;;;;;;;;;;;21086463;28;20023;-62
2022/09/02 23:33:16;;;;;;;;;;;;;;;;;;21086212;28;20459;-62
2022/09/02 23:43:18;;;;;;;;;;;;;;;;;;21086589;28;19932;-62
2022/09/02 23:53:21;;;;;;;;;;;;;;;;;;21084430;28;19924;-62
